Nearby METAR Reports

 

KMRB - Martinsburg, West Virginia, USA
Distance from station: NNW 9mi, 14km
Updated: 06/26/2022 4:48pm
Heavy rain, Mist, Overcast
Heavy rain, Mist, Overcast
 Wind from SSW
Wind: SSW 10 mph , 17 km/h, Gust: 24 mph , 39 km/h
Temperature: 72°F , 22°C
Dew Point: 68°F , 20°C
Humidity: 88%
Barometer: 30.03 inHg , 1016.9 hPa
Summary: Heavy rain, Mist
Clouds: Overcast
Visibility: 1 3/4 miles , 2.8 km
Cloud details: Partly cloudy 3400 ft
Overcast 4400 ft
2022/06/26 20:48 KMRB 262048Z AUTO 21009G21KT 1 3/4SM +RA BR SCT034 OVC044 22/20 A3003 RMK AO2 PK WND 22029/2023 WSHFT 2020 RAB35 P0007 TSNO $
KOKV - Winchester Rgnl, Virginia, USA
Distance from station: SW 17mi, 28km
Updated: 06/26/2022 4:55pm

 Wind from WSW
Wind: WSW 3 mph , 6 km/h
Visibility: 10 miles , 16 km
2022/06/26 20:55 KOKV 262055Z AUTO 24003KT 10SM -VCTSDZ SCT008 BKN060 OVC085 20/19 A3005 RMK AO2 LTG DSNT ALQS P0013
 
KJYO - Leesburg/Godfrey, Virginia, USA
Distance from station: SE 23mi, 38km
Updated: 06/26/2022 4:55pm
Mostly cloudy
Mostly cloudy
 Wind from SSW
Wind: SSW 8 mph , 13 km/h
Temperature: 88°F , 31°C
Heat Index: 95°F , 35°C
Dew Point: 72°F , 22°C
Humidity: 59%
Barometer: 30.03 inHg , 1016.9 hPa
Clouds: Mostly cloudy
Visibility: 10 miles , 16 km
Cloud details: Mostly cloudy 5000 ft
Mostly cloudy 12000 ft
2022/06/26 20:55 KJYO 262055Z AUTO 20007KT 10SM BKN050 BKN120 31/22 A3003 RMK AO2 LTG DSNT W AND NW PWINO
KFDK - Frederick, Maryland, USA
Distance from station: ENE 30mi, 48km
Updated: 06/26/2022 4:47pm
Mist, Overcast
Mist, Overcast
 Wind from SSW
Wind: SSW 10 mph , 17 km/h, Gust: 20 mph , 31 km/h
Temperature: 88°F , 31°C
Heat Index: 92°F , 33°C
Dew Point: 68°F , 20°C
Humidity: 52%
Barometer: 30.00 inHg , 1015.9 hPa
Summary: Mist
Clouds: Overcast
Visibility: 7 miles , 11 km
Cloud details: Mostly cloudy 5500 ft
Overcast 6500 ft
2022/06/26 20:47 KFDK 262047Z 21009G17KT 7SM BR BKN055 OVC065 31/20 A3000
 
KHGR - Hagerstown, Maryland, USA
Distance from station: NNE 30mi, 48km
Updated: 06/26/2022 4:53pm
Light rain, Overcast
Light rain, Overcast
 Wind from S
Wind: S 8 mph , 13 km/h
Temperature: 79°F , 26°C
Dew Point: 72°F , 22°C
Humidity: 79%
Barometer: 30.01 inHg , 1016.3 hPa
Summary: Light rain
Clouds: Overcast
Visibility: 4 miles , 6 km
Cloud details: Partly cloudy 7000 ft
Overcast 10000 ft
2022/06/26 20:53 KHGR 262053Z 17007KT 4SM -RA SCT070 OVC100 26/22 A3001 RMK AO2 LTG DSNT SW AND W RAB15E28B45 SLP164 CB DSNT NE MOV E P0000 60000 T02610222 55007 $
KIAD - Wash Dc/Dulles, Virginia, USA
Distance from station: SE 34mi, 55km
Updated: 06/26/2022 4:52pm
Mostly cloudy
Mostly cloudy
 Wind from S
Wind: S 12 mph , 19 km/h, Gust: 23 mph , 37 km/h
Temperature: 88°F , 31°C
Heat Index: 92°F , 33°C
Dew Point: 68°F , 20°C
Humidity: 52%
Barometer: 30.01 inHg , 1016.3 hPa
Clouds: Mostly cloudy
Visibility: 10 miles , 16 km
Cloud details: Mostly cloudy 5000 ft
2022/06/26 20:52 KIAD 262052Z 19010G20KT 10SM BKN050CB 31/20 A3001 RMK AO2 LTG DSNT W AND NW SLP160 CB W MOV E T03060200 56010
 
KRSP - Nsf Thurmont, Maryland, USA
Distance from station: NE 34mi, 55km
Updated: 06/26/2022 4:54pm
Light rain, Overcast
Light rain, Overcast
 Wind from SSW
Wind: SSW 10 mph , 17 km/h, Gust: 21 mph , 33 km/h
Temperature: 75°F , 24°C
Barometer: 30.08 inHg , 1018.6 hPa
Summary: Light rain
Clouds: Overcast
Cloud details: Mostly cloudy 8000 ft
Overcast 9500 ft
2022/06/26 20:54 KRSP 262054Z AUTO 20009G18KT 150V230 -RA BKN080 OVC095 24/ A3008 RMK AO2 RAB40 SLP272 P0000 60000 T0239 55010 $
KGAI - Gaithersburg, Maryland, USA
Distance from station: E 40mi, 64km
Updated: 06/26/2022 4:56pm
Few Clouds
Few Clouds
 Wind from S
Wind: S 13 mph , 20 km/h
Temperature: 86°F , 30°C
Heat Index: 89°F , 32°C
Dew Point: 68°F , 20°C
Humidity: 55%
Barometer: 30.04 inHg , 1017.3 hPa
Clouds: Few Clouds
Visibility: 10 miles , 16 km
Cloud details: Few Clouds 4700 ft
2022/06/26 20:56 KGAI 262056Z AUTO 17011KT 10SM FEW047 30/20 A3004 RMK AO2 SLP178 T03000200 56012
 
KRYT - Fountain Dale, Pennsylvania, USA
Distance from station: NE 40mi, 64km
Updated: 11/13/2017 7:53am
NOT Current
Mist, Overcast
Mist, Overcast
 Wind from calm
Wind: Calm
Temperature: 37°F , 3°C
Dew Point: 34°F , 1°C
Humidity: 87%
Barometer: 30.31 inHg , 1026.4 hPa
Summary: Mist
Clouds: Overcast
Visibility: 5 miles , 8 km
Cloud details: Overcast 700 ft
2017/11/13 12:53 KRYT 131253Z AUTO 00000KT 5SM BR OVC007 03/01 A3031 RMK AO2 SLP275 T00280011 TSNO $
KHEF - Manassas Muni, Virginia, USA
Distance from station: SSE 44mi, 72km
Updated: 06/26/2022 4:56pm
Mostly cloudy
Mostly cloudy
 Wind from SSW
Wind: SSW 9 mph , 15 km/h
Temperature: 84°F , 29°C
Heat Index: 88°F , 31°C
Dew Point: 70°F , 21°C
Humidity: 62%
Barometer: 30.02 inHg , 1016.6 hPa
Clouds: Mostly cloudy
Visibility: 10 miles , 16 km
Cloud details: Mostly cloudy 6000 ft
2022/06/26 20:56 KHEF 262056Z 20008KT 10SM BKN060 29/21 A3002 RMK AO2 LTG DSNT W AND NW SLP171 T02940206 56009
 
KHWY - Warrenton, Virginia, USA
Distance from station: SSE 50mi, 80km
Updated: 06/26/2022 4:55pm
Overcast
Overcast
 Wind from WSW
Wind: WSW 12 mph , 19 km/h, Gust: 22 mph , 35 km/h
Temperature: 81°F , 27°C
Heat Index: 83°F , 28°C
Dew Point: 64°F , 18°C
Humidity: 58%
Barometer: 30.05 inHg , 1017.6 hPa
Clouds: Overcast
Visibility: 10 miles , 16 km
Cloud details: Mostly cloudy 4600 ft
Overcast 6000 ft
2022/06/26 20:55 KHWY 262055Z AUTO 25010G19KT 10SM BKN046 OVC060 27/18 A3005 RMK AO2 LTG DSNT NW T02710175